createdAt,value
2022-10-11T00:01:48.060Z,21.23
2022-10-11T00:04:14.792Z,34.28
2022-10-11T00:06:43.643Z,22.70
2022-10-11T00:09:14.903Z,32.05
2022-10-11T00:11:42.149Z,26.10
2022-10-11T00:14:08.892Z,36.42
2022-10-11T00:16:35.868Z,36.63
2022-10-11T00:19:02.624Z,27.13
2022-10-11T00:21:30.670Z,21.80
2022-10-11T00:23:57.420Z,21.92
2022-10-11T00:26:24.137Z,22.13
2022-10-11T00:28:52.738Z,23.58
2022-10-11T00:31:20.471Z,26.85
2022-10-11T00:33:47.469Z,49.10
2022-10-11T00:36:16.792Z,37.22
2022-10-11T00:38:44.691Z,29.90
2022-10-11T00:41:11.941Z,36.90
2022-10-11T00:43:38.907Z,33.85
2022-10-11T00:46:13.595Z,30.35
2022-10-11T00:48:46.019Z,32.28
2022-10-11T00:51:21.035Z,24.15
2022-10-11T00:53:50.809Z,27.35
2022-10-11T00:56:23.816Z,24.83
2022-10-11T00:58:51.038Z,29.13
2022-10-11T01:03:44.979Z,23.60
2022-10-11T01:08:38.880Z,24.98
2022-10-11T01:13:38.113Z,24.73
2022-10-11T01:16:29.960Z,25.60
2022-10-11T01:19:14.536Z,25.27
2022-10-11T01:21:52.199Z,23.70
2022-10-11T01:24:53.039Z,22.17
2022-10-11T01:27:45.221Z,23.05
2022-10-11T01:30:31.780Z,34.53
2022-10-11T01:33:04.272Z,27.83
2022-10-11T01:35:35.517Z,32.28
2022-10-11T01:38:18.082Z,35.35
2022-10-11T01:40:56.460Z,45.13
2022-10-11T01:43:24.627Z,41.30
2022-10-11T01:45:55.191Z,37.50
2022-10-11T01:48:22.028Z,35.25
2022-10-11T01:50:58.612Z,44.58
2022-10-11T01:54:04.241Z,36.08
2022-10-11T01:56:55.254Z,35.17
2022-10-11T01:59:28.563Z,37.63
2022-10-11T02:01:58.213Z,37.30
2022-10-11T02:04:36.192Z,35.75
2022-10-11T02:07:33.669Z,30.00
2022-10-11T02:10:24.661Z,34.83
2022-10-11T02:13:02.421Z,29.58
2022-10-11T02:15:32.889Z,28.95
2022-10-11T02:18:03.325Z,25.50
2022-10-11T02:20:33.706Z,26.55
2022-10-11T02:23:08.145Z,27.05
2022-10-11T02:25:36.515Z,22.25
2022-10-11T02:28:11.344Z,23.15
2022-10-11T02:30:42.117Z,27.58
2022-10-11T02:33:13.125Z,27.65
2022-10-11T02:35:47.224Z,30.67
2022-10-11T02:38:24.942Z,26.23
2022-10-11T02:41:01.221Z,31.27
2022-10-11T02:43:41.590Z,25.40
2022-10-11T02:46:09.998Z,25.48
2022-10-11T02:48:37.511Z,26.85
2022-10-11T02:51:04.920Z,33.30
2022-10-11T02:53:32.332Z,37.58
2022-10-11T02:55:59.129Z,32.13
2022-10-11T02:58:25.926Z,32.33
2022-10-11T03:00:52.642Z,23.42
2022-10-11T03:03:19.368Z,42.67
2022-10-11T03:05:46.141Z,30.02
2022-10-11T03:08:14.487Z,25.42
2022-10-11T03:10:41.984Z,28.52
2022-10-11T03:13:09.075Z,28.45
2022-10-11T03:15:35.856Z,30.05
2022-10-11T03:18:02.576Z,28.50
2022-10-11T03:20:29.268Z,30.10
2022-10-11T03:22:56.007Z,33.25
2022-10-11T03:25:22.676Z,27.40
2022-10-11T03:27:49.391Z,26.20
2022-10-11T03:30:18.290Z,30.35
2022-10-11T03:32:45.562Z,27.70
2022-10-11T03:35:12.428Z,24.15
2022-10-11T03:37:39.131Z,24.35
2022-10-11T03:40:08.405Z,23.65
2022-10-11T03:42:36.048Z,27.63
2022-10-11T03:45:05.110Z,27.92
2022-10-11T03:47:32.323Z,25.58
2022-10-11T03:49:59.020Z,23.63
2022-10-11T03:52:25.764Z,21.05
2022-10-11T03:54:52.690Z,21.58
2022-10-11T03:57:19.643Z,22.02
2022-10-11T03:59:46.373Z,23.63
2022-10-11T04:02:13.209Z,21.27
2022-10-11T04:04:40.001Z,18.25
2022-10-11T04:07:06.703Z,18.20
2022-10-11T04:09:33.655Z,18.73
2022-10-11T04:12:00.900Z,22.10
2022-10-11T04:16:56.420Z,19.13
2022-10-11T04:19:26.733Z,21.45
2022-10-11T04:21:53.425Z,19.23
2022-10-11T04:24:20.342Z,17.98
2022-10-11T04:26:47.113Z,20.35
2022-10-11T04:29:13.966Z,19.77
2022-10-11T04:31:40.667Z,19.63
2022-10-11T04:34:07.376Z,21.38
2022-10-11T04:36:34.112Z,20.73
2022-10-11T04:39:01.714Z,22.85
2022-10-11T04:41:29.422Z,21.40
2022-10-11T04:43:56.227Z,19.30
2022-10-11T04:46:23.531Z,19.25
2022-10-11T04:48:50.601Z,20.98
2022-10-11T04:51:17.857Z,22.60
2022-10-11T04:56:12.096Z,17.55
2022-10-11T04:58:41.011Z,21.98
2022-10-11T05:01:09.044Z,19.38
2022-10-11T05:03:36.148Z,20.90
2022-10-11T05:06:05.926Z,16.35
2022-10-11T05:08:34.304Z,18.50
2022-10-11T05:11:04.134Z,16.23
2022-10-11T05:13:32.391Z,15.52
2022-10-11T05:15:59.743Z,16.70
2022-10-11T05:18:27.333Z,16.70
2022-10-11T05:21:21.292Z,15.57
2022-10-11T05:23:49.981Z,14.63
2022-10-11T05:26:18.107Z,14.80
2022-10-11T05:28:45.305Z,15.57
2022-10-11T05:31:12.528Z,16.40
2022-10-11T05:33:39.333Z,14.98
2022-10-11T05:36:07.524Z,16.02
2022-10-11T05:38:35.006Z,13.95
2022-10-11T05:43:30.041Z,16.70
2022-10-11T05:45:57.682Z,16.63
2022-10-11T05:48:26.699Z,18.60
2022-10-11T05:50:58.405Z,18.67
2022-10-11T05:53:25.111Z,18.02
2022-10-11T05:55:51.792Z,19.58
2022-10-11T05:58:18.876Z,16.48
2022-10-11T06:00:45.594Z,14.23
2022-10-11T06:03:13.186Z,16.17
2022-10-11T06:05:40.139Z,17.42
2022-10-11T06:08:08.708Z,18.30
2022-10-11T06:10:36.200Z,21.02
2022-10-11T06:13:03.035Z,19.13
2022-10-11T06:15:29.876Z,19.13
2022-10-11T06:17:56.612Z,19.58
2022-10-11T06:20:23.411Z,20.17
2022-10-11T06:22:50.129Z,19.63
2022-10-11T06:25:16.838Z,18.98
2022-10-11T06:27:43.541Z,17.35
2022-10-11T06:30:10.603Z,16.17
2022-10-11T06:32:37.732Z,17.60
2022-10-11T06:35:05.628Z,15.35
2022-10-11T06:37:32.412Z,15.95
2022-10-11T06:39:59.117Z,15.88
2022-10-11T06:42:25.844Z,16.00
2022-10-11T06:44:52.563Z,15.07
2022-10-11T06:47:19.268Z,15.15
2022-10-11T06:49:45.982Z,15.80
2022-10-11T06:52:12.739Z,15.65
2022-10-11T06:54:44.577Z,14.60
2022-10-11T06:57:11.936Z,13.43
2022-10-11T06:59:38.618Z,12.65
2022-10-11T07:02:05.352Z,11.80
2022-10-11T07:04:33.856Z,10.93
2022-10-11T07:07:00.783Z,10.13
2022-10-11T07:09:27.505Z,10.23
2022-10-11T07:11:54.228Z,9.23
2022-10-11T07:14:20.925Z,10.07
2022-10-11T07:16:47.628Z,9.95
2022-10-11T07:19:14.385Z,8.50
2022-10-11T07:21:41.244Z,8.93
2022-10-11T07:24:08.096Z,8.77
2022-10-11T07:26:38.907Z,9.15
2022-10-11T07:29:08.001Z,9.02
2022-10-11T07:31:39.929Z,8.85
2022-10-11T07:34:07.132Z,8.20
2022-10-11T07:36:34.555Z,8.50
2022-10-11T07:39:04.799Z,8.45
2022-10-11T07:41:31.489Z,8.45
2022-10-11T07:43:58.268Z,8.70
2022-10-11T07:46:25.025Z,8.52
2022-10-11T07:48:51.750Z,8.38
2022-10-11T07:51:21.434Z,7.35
2022-10-11T07:53:50.641Z,8.85
2022-10-11T07:56:27.732Z,8.45
2022-10-11T07:59:00.301Z,7.43
2022-10-11T08:01:28.536Z,7.57
2022-10-11T08:03:56.947Z,8.00
2022-10-11T08:06:29.217Z,8.40
2022-10-11T08:08:56.888Z,7.05
2022-10-11T08:11:29.737Z,8.50
2022-10-11T08:13:58.036Z,7.72
2022-10-11T08:16:25.205Z,8.02
2022-10-11T08:18:52.034Z,8.90
2022-10-11T08:21:19.218Z,7.78
2022-10-11T08:23:46.240Z,8.07
2022-10-11T08:26:13.236Z,8.40
2022-10-11T08:28:40.044Z,8.65
2022-10-11T08:31:07.196Z,8.65
2022-10-11T08:36:05.163Z,8.32
2022-10-11T08:38:32.267Z,8.25
2022-10-11T08:41:32.756Z,8.45
2022-10-11T08:44:17.667Z,8.32
2022-10-11T08:46:50.543Z,7.80
2022-10-11T08:49:19.881Z,7.20
2022-10-11T08:51:52.635Z,7.18
2022-10-11T08:54:31.272Z,7.45
2022-10-11T08:56:58.024Z,7.20
2022-10-11T08:59:41.160Z,7.88
2022-10-11T09:02:55.677Z,7.70
2022-10-11T09:05:25.642Z,7.00
2022-10-11T09:08:14.758Z,7.50
2022-10-11T09:10:44.150Z,6.85
2022-10-11T09:13:41.564Z,7.32
2022-10-11T09:16:49.484Z,7.72
2022-10-11T09:19:53.485Z,7.70
2022-10-11T09:22:34.395Z,7.20
2022-10-11T09:25:19.397Z,6.63
2022-10-11T09:28:04.267Z,7.88
2022-10-11T09:30:33.020Z,8.02
2022-10-11T09:33:17.355Z,7.00
2022-10-11T09:35:50.991Z,5.80
2022-10-11T09:38:36.714Z,5.90
2022-10-11T09:41:25.220Z,5.75
2022-10-11T09:43:52.746Z,6.07
2022-10-11T09:46:34.726Z,6.68
2022-10-11T09:49:04.642Z,6.40
2022-10-11T09:51:31.716Z,6.25
2022-10-11T09:54:05.001Z,6.38
2022-10-11T09:56:34.677Z,6.38
2022-10-11T09:59:28.970Z,5.85
2022-10-11T10:02:26.607Z,5.38
2022-10-11T10:04:57.654Z,6.25
2022-10-11T10:07:24.994Z,6.22
2022-10-11T10:09:53.109Z,6.13
2022-10-11T10:12:24.232Z,4.15
2022-10-11T10:15:17.740Z,4.95
2022-10-11T10:17:52.198Z,4.82
2022-10-11T10:20:25.391Z,4.88
2022-10-11T10:22:52.639Z,4.68
2022-10-11T10:25:43.371Z,4.95
2022-10-11T10:28:23.334Z,5.88
2022-10-11T10:30:55.378Z,5.57
2022-10-11T10:33:24.821Z,5.20
2022-10-11T10:35:58.377Z,5.38
2022-10-11T10:38:38.656Z,5.60
2022-10-11T10:41:10.954Z,5.60
2022-10-11T10:43:40.556Z,5.13
2022-10-11T10:46:22.561Z,6.55
2022-10-11T10:52:37.593Z,6.35
2022-10-11T10:55:12.771Z,4.75
2022-10-11T10:57:59.372Z,4.47
2022-10-11T11:00:30.533Z,4.97
2022-10-11T11:03:05.737Z,5.20
2022-10-11T11:05:53.778Z,5.03
2022-10-11T11:11:23.904Z,5.28
2022-10-11T11:14:23.171Z,5.53
2022-10-11T11:17:08.510Z,4.82
2022-10-11T11:19:53.353Z,5.88
2022-10-11T11:22:22.627Z,4.90
2022-10-11T11:25:01.308Z,5.45
2022-10-11T11:27:42.039Z,4.75
2022-10-11T11:30:27.221Z,4.45
2022-10-11T11:33:12.116Z,4.55
2022-10-11T11:35:46.299Z,5.10
2022-10-11T11:38:37.816Z,5.75
2022-10-11T11:41:13.333Z,4.95
2022-10-11T11:43:53.455Z,5.72
2022-10-11T11:46:29.398Z,4.90
2022-10-11T11:49:00.413Z,4.82
2022-10-11T11:51:41.503Z,5.57
2022-10-11T11:54:35.610Z,5.40
2022-10-11T11:57:24.191Z,5.63
2022-10-11T12:00:19.866Z,6.03
2022-10-11T12:02:52.672Z,6.43
2022-10-11T12:05:24.873Z,5.65
2022-10-11T12:07:54.717Z,6.80
2022-10-11T12:10:28.817Z,5.80
2022-10-11T12:13:08.439Z,4.80
2022-10-11T12:15:36.558Z,5.00
2022-10-11T12:18:12.825Z,5.70
2022-10-11T12:20:41.746Z,5.15
2022-10-11T12:23:30.348Z,4.90
2022-10-11T12:26:18.044Z,5.65
2022-10-11T12:29:00.346Z,4.85
2022-10-11T12:31:35.733Z,4.47
2022-10-11T12:34:02.446Z,4.25
2022-10-11T12:39:18.210Z,4.20
2022-10-11T12:41:47.629Z,4.10
2022-10-11T12:44:28.754Z,4.15
2022-10-11T12:46:55.645Z,3.53
2022-10-11T12:49:33.997Z,4.15
2022-10-11T12:52:04.246Z,4.50
2022-10-11T12:54:45.989Z,3.85
2022-10-11T12:57:34.478Z,3.38
2022-10-11T13:00:17.978Z,3.47
2022-10-11T13:02:44.883Z,4.10
2022-10-11T13:05:23.451Z,4.30
2022-10-11T13:07:53.183Z,4.38
2022-10-11T13:10:42.482Z,4.93
2022-10-11T13:13:29.267Z,4.10
2022-10-11T13:15:59.043Z,4.25
2022-10-11T13:18:26.515Z,4.25
2022-10-11T13:20:53.389Z,4.72
2022-10-11T13:23:30.013Z,4.13
2022-10-11T13:25:56.868Z,3.85
2022-10-11T13:28:24.010Z,3.58
2022-10-11T13:30:56.303Z,3.70
2022-10-11T13:33:32.110Z,3.78
2022-10-11T13:36:04.675Z,4.15
2022-10-11T13:38:35.195Z,3.40
2022-10-11T13:41:05.201Z,3.25
2022-10-11T13:43:32.809Z,4.32
2022-10-11T13:46:08.939Z,3.35
2022-10-11T13:51:17.923Z,3.92
2022-10-11T13:54:03.799Z,4.68
2022-10-11T13:56:36.034Z,7.65
2022-10-11T13:59:03.303Z,4.82
2022-10-11T14:01:44.020Z,3.90
2022-10-11T14:04:13.457Z,3.45
2022-10-11T14:06:49.224Z,3.38
2022-10-11T14:09:27.089Z,3.90
2022-10-11T14:11:54.494Z,4.38
2022-10-11T14:14:33.212Z,3.38
2022-10-11T14:17:14.464Z,3.92
2022-10-11T14:19:42.656Z,3.58
2022-10-11T14:22:16.399Z,4.15
2022-10-11T14:24:47.319Z,4.35
2022-10-11T14:27:19.423Z,4.45
2022-10-11T14:30:00.571Z,3.75
2022-10-11T14:32:34.807Z,3.88
2022-10-11T14:35:01.555Z,3.60
2022-10-11T14:37:28.268Z,4.10
2022-10-11T14:39:54.968Z,4.60
2022-10-11T14:42:21.664Z,3.92
2022-10-11T14:44:48.345Z,3.88
2022-10-11T14:47:16.843Z,4.50
2022-10-11T14:49:43.708Z,4.60
2022-10-11T14:52:11.809Z,3.88
2022-10-11T14:54:38.666Z,3.85
2022-10-11T14:57:08.351Z,3.88
2022-10-11T14:59:37.765Z,4.05
2022-10-11T15:02:07.258Z,5.90
2022-10-11T15:04:34.412Z,4.97
2022-10-11T15:07:01.628Z,6.82
2022-10-11T15:09:28.695Z,4.78
2022-10-11T15:11:55.468Z,3.85
2022-10-11T15:14:24.017Z,3.78
2022-10-11T15:16:51.715Z,4.95
2022-10-11T15:19:21.928Z,4.15
2022-10-11T15:21:49.491Z,4.03
2022-10-11T15:24:16.591Z,5.53
2022-10-11T15:26:44.049Z,4.97
2022-10-11T15:29:12.703Z,4.75
2022-10-11T15:31:39.756Z,4.90
2022-10-11T15:34:06.553Z,4.82
2022-10-11T15:36:33.316Z,4.75
2022-10-11T15:41:26.868Z,5.63
2022-10-11T15:43:53.700Z,7.22
2022-10-11T15:46:22.785Z,5.90
2022-10-11T15:48:51.859Z,5.45
2022-10-11T15:51:18.678Z,53.60
2022-10-11T15:56:19.375Z,6.93
2022-10-11T15:58:46.273Z,5.00
2022-10-11T16:01:18.786Z,5.53
2022-10-11T16:03:47.722Z,6.95
2022-10-11T16:06:15.377Z,5.18
2022-10-11T16:08:42.073Z,6.40
2022-10-11T16:11:10.135Z,6.57
2022-10-11T16:13:37.513Z,5.90
2022-10-11T16:16:07.065Z,5.78
2022-10-11T16:18:35.819Z,4.80
2022-10-11T16:21:09.371Z,5.05
2022-10-11T16:23:36.856Z,5.13
2022-10-11T16:26:07.137Z,4.57
2022-10-11T16:28:34.377Z,4.53
2022-10-11T16:33:32.338Z,4.35
2022-10-11T16:36:18.961Z,4.75
2022-10-11T16:38:45.891Z,5.30
2022-10-11T16:43:39.124Z,5.43
2022-10-11T16:46:06.026Z,5.55
2022-10-11T16:48:32.944Z,8.32
2022-10-11T16:51:07.223Z,8.68
2022-10-11T16:53:35.445Z,6.38
2022-10-11T16:56:09.990Z,6.20
2022-10-11T16:58:37.537Z,5.65
2022-10-11T17:01:08.963Z,9.48
2022-10-11T17:03:35.852Z,6.50
2022-10-11T17:06:03.082Z,5.03
2022-10-11T17:08:30.230Z,5.47
2022-10-11T17:10:57.873Z,7.30
2022-10-11T17:13:25.271Z,5.15
2022-10-11T17:15:52.262Z,6.13
2022-10-11T17:20:51.819Z,6.57
2022-10-11T17:23:19.211Z,12.93
2022-10-11T17:25:47.371Z,12.57
2022-10-11T17:28:14.656Z,10.60
2022-10-11T17:30:42.461Z,10.20
2022-10-11T17:33:09.770Z,9.30
2022-10-11T17:35:36.902Z,12.63
2022-10-11T17:38:06.119Z,10.75
2022-10-11T17:40:33.229Z,7.07
2022-10-11T17:42:59.937Z,7.22
2022-10-11T17:45:26.660Z,6.18
2022-10-11T17:47:53.998Z,6.30
2022-10-11T17:50:20.839Z,6.70
2022-10-11T17:52:47.755Z,6.82
2022-10-11T17:57:41.471Z,7.30
2022-10-11T18:00:08.877Z,7.78
2022-10-11T18:02:35.647Z,6.22
2022-10-11T18:05:03.331Z,7.55
2022-10-11T18:07:30.141Z,7.60
2022-10-11T18:09:57.062Z,8.38
2022-10-11T18:12:23.911Z,7.00
2022-10-11T18:14:51.193Z,6.65
2022-10-11T18:17:18.949Z,6.80
2022-10-11T18:19:45.672Z,6.18
2022-10-11T18:22:12.384Z,6.32
2022-10-11T18:24:39.229Z,6.50
2022-10-11T18:27:06.018Z,6.43
2022-10-11T18:29:33.188Z,6.10
2022-10-11T18:31:59.901Z,5.38
2022-10-11T18:34:26.584Z,6.03
2022-10-11T18:36:53.296Z,5.13
2022-10-11T18:39:21.812Z,6.13
2022-10-11T18:41:48.527Z,5.40
2022-10-11T18:44:16.699Z,6.72
2022-10-11T18:46:44.804Z,7.20
2022-10-11T18:49:12.363Z,6.63
2022-10-11T18:51:41.152Z,7.65
2022-10-11T18:54:12.056Z,6.60
2022-10-11T18:56:41.120Z,6.93
2022-10-11T18:59:07.958Z,8.07
2022-10-11T19:01:38.329Z,7.53
2022-10-11T19:04:06.519Z,7.18
2022-10-11T19:06:36.461Z,7.38
2022-10-11T19:09:08.553Z,8.45
2022-10-11T19:11:37.037Z,7.32
2022-10-11T19:14:07.189Z,8.27
2022-10-11T19:16:37.949Z,8.65
2022-10-11T19:19:06.597Z,6.47
2022-10-11T19:21:34.004Z,8.23
2022-10-11T19:24:01.906Z,7.38
2022-10-11T19:26:34.029Z,6.65
2022-10-11T19:29:14.761Z,7.88
2022-10-11T19:31:44.606Z,7.50
2022-10-11T19:34:12.067Z,8.32
2022-10-11T19:36:39.517Z,8.02
2022-10-11T19:39:06.506Z,8.35
2022-10-11T19:44:00.245Z,7.45
2022-10-11T19:46:49.828Z,8.27
2022-10-11T19:49:17.869Z,8.30
2022-10-11T19:51:45.388Z,8.00
2022-10-11T19:54:14.384Z,9.40
2022-10-11T19:56:42.607Z,6.82
2022-10-11T19:59:11.163Z,7.78
2022-10-11T20:01:38.866Z,8.90
2022-10-11T20:04:07.921Z,7.75
2022-10-11T20:06:38.540Z,8.13
2022-10-11T20:09:28.627Z,7.47
2022-10-11T20:11:56.978Z,7.55
2022-10-11T20:16:51.064Z,8.80
2022-10-11T20:19:18.924Z,7.68
2022-10-11T20:21:46.035Z,21.55
2022-10-11T20:26:40.449Z,8.43
2022-10-11T20:29:07.656Z,7.53
2022-10-11T20:31:40.639Z,7.22
2022-10-11T20:34:07.709Z,8.10
2022-10-11T20:36:36.238Z,8.52
2022-10-11T20:39:04.644Z,8.50
2022-10-11T20:41:34.652Z,8.55
2022-10-11T20:44:03.108Z,8.55
2022-10-11T20:46:34.728Z,8.68
2022-10-11T20:49:04.463Z,9.50
2022-10-11T20:51:33.740Z,8.90
2022-10-11T20:54:02.052Z,8.35
2022-10-11T20:56:29.755Z,8.23
2022-10-11T20:58:57.990Z,9.25
2022-10-11T21:01:37.113Z,8.98
2022-10-11T21:04:05.630Z,8.02
2022-10-11T21:06:33.495Z,9.18
2022-10-11T21:09:01.082Z,8.68
2022-10-11T21:11:29.755Z,7.57
2022-10-11T21:13:57.927Z,8.25
2022-10-11T21:16:25.290Z,8.50
2022-10-11T21:18:53.612Z,10.07
2022-10-11T21:21:20.467Z,8.35
2022-10-11T21:23:47.613Z,8.38
2022-10-11T21:28:41.407Z,9.23
2022-10-11T21:31:10.608Z,9.00
2022-10-11T21:33:38.197Z,8.40
2022-10-11T21:36:06.953Z,9.43
2022-10-11T21:38:34.636Z,10.13
2022-10-11T21:41:10.063Z,9.82
2022-10-11T21:43:38.325Z,9.80
2022-10-11T21:46:15.956Z,10.60
2022-10-11T21:48:42.788Z,10.00
2022-10-11T21:51:15.612Z,10.90
2022-10-11T21:53:42.430Z,9.85
2022-10-11T21:56:09.233Z,9.88
2022-10-11T21:58:35.936Z,11.65
2022-10-11T22:01:03.170Z,10.85
2022-10-11T22:03:29.965Z,11.48
2022-10-11T22:05:56.660Z,10.23
2022-10-11T22:08:23.385Z,11.82
2022-10-11T22:10:55.507Z,10.73
2022-10-11T22:13:22.263Z,11.80
2022-10-11T22:15:49.274Z,11.68
2022-10-11T22:18:16.561Z,10.93
2022-10-11T22:20:43.863Z,11.95
2022-10-11T22:23:11.535Z,11.35
2022-10-11T22:25:39.831Z,10.63
2022-10-11T22:28:07.167Z,12.00
2022-10-11T22:30:34.577Z,11.20
2022-10-11T22:33:01.283Z,11.02
2022-10-11T22:35:28.004Z,11.18
2022-10-11T22:37:54.704Z,12.02
2022-10-11T22:40:21.414Z,11.43
2022-10-11T22:42:48.189Z,11.68
2022-10-11T22:45:14.957Z,10.05
2022-10-11T22:47:41.680Z,12.00
2022-10-11T22:50:08.779Z,12.38
2022-10-11T22:55:02.019Z,11.73
2022-10-11T22:57:29.632Z,11.52
2022-10-11T22:59:56.377Z,10.85
2022-10-11T23:02:23.066Z,10.02
2022-10-11T23:04:49.845Z,11.25
2022-10-11T23:07:16.543Z,11.40
2022-10-11T23:09:43.299Z,10.68
2022-10-11T23:12:09.984Z,11.00
2022-10-11T23:14:36.671Z,11.45
2022-10-11T23:17:03.363Z,10.02
2022-10-11T23:19:30.056Z,10.15
2022-10-11T23:21:56.783Z,10.27
2022-10-11T23:24:23.540Z,10.55
2022-10-11T23:26:50.275Z,11.52
2022-10-11T23:29:17.042Z,11.07
2022-10-11T23:31:44.534Z,12.50
2022-10-11T23:34:11.256Z,12.65
2022-10-11T23:36:37.986Z,12.80
2022-10-11T23:39:04.741Z,12.18
2022-10-11T23:41:31.724Z,12.00
2022-10-11T23:43:58.678Z,11.52
2022-10-11T23:46:25.706Z,11.73
2022-10-11T23:48:52.386Z,10.40
2022-10-11T23:51:19.135Z,10.85
2022-10-11T23:53:45.805Z,11.43
2022-10-11T23:56:12.636Z,11.27
2022-10-11T23:58:39.517Z,10.60
